createdAt,value
2022-10-30T00:04:00.578Z,40.33
2022-10-30T00:09:09.498Z,38.57
2022-10-30T00:14:19.851Z,30.90
2022-10-30T00:19:29.418Z,33.97
2022-10-30T00:24:39.019Z,37.13
2022-10-30T00:29:47.957Z,34.23
2022-10-30T00:34:56.351Z,36.53
2022-10-30T00:40:04.699Z,31.90
2022-10-30T00:45:14.561Z,29.87
2022-10-30T00:55:36.178Z,30.63
2022-10-30T01:00:48.397Z,30.20
2022-10-30T01:05:58.587Z,33.73
2022-10-30T01:11:06.477Z,32.07
2022-10-30T01:16:17.468Z,38.10
2022-10-30T01:31:57.844Z,30.73
2022-10-30T01:37:09.391Z,33.20
2022-10-30T01:42:21.125Z,29.83
2022-10-30T01:47:32.105Z,31.73
2022-10-30T01:52:43.054Z,30.50
2022-10-30T01:57:54.413Z,32.00
2022-10-30T02:03:02.434Z,29.83
2022-10-30T02:08:10.767Z,27.13
2022-10-30T02:13:18.658Z,26.50
2022-10-30T02:18:26.431Z,33.97
2022-10-30T02:23:34.476Z,32.07
2022-10-30T02:28:42.304Z,27.00
2022-10-30T02:33:50.208Z,27.93
2022-10-30T02:38:58.093Z,28.43
2022-10-30T02:44:07.728Z,29.03
2022-10-30T02:49:16.682Z,34.37
2022-10-30T02:54:31.406Z,26.73
2022-10-30T02:59:39.415Z,25.67
2022-10-30T03:04:48.036Z,30.17
2022-10-30T03:09:55.945Z,26.73
2022-10-30T03:15:03.879Z,31.07
2022-10-30T03:20:15.389Z,27.37
2022-10-30T03:25:24.193Z,25.27
2022-10-30T03:30:32.551Z,29.60
2022-10-30T03:35:40.461Z,30.77
2022-10-30T03:40:48.285Z,34.00
2022-10-30T03:45:57.612Z,23.87
2022-10-30T03:51:06.526Z,25.07
2022-10-30T03:56:14.715Z,30.13
2022-10-30T04:01:23.202Z,29.00
2022-10-30T04:06:31.112Z,32.07
2022-10-30T04:11:39.404Z,26.90
2022-10-30T04:16:47.234Z,29.03
2022-10-30T04:21:55.049Z,30.33
2022-10-30T04:27:02.970Z,33.70
2022-10-30T04:32:11.525Z,31.03
2022-10-30T04:37:20.808Z,23.47
2022-10-30T04:42:28.635Z,26.63
2022-10-30T04:47:36.488Z,29.40
2022-10-30T04:52:44.353Z,24.07
2022-10-30T04:57:53.734Z,28.23
2022-10-30T05:03:02.337Z,23.23
2022-10-30T05:08:10.225Z,21.90
2022-10-30T05:13:18.152Z,25.90
2022-10-30T05:18:26.587Z,25.50
2022-10-30T05:23:34.960Z,32.13
2022-10-30T05:28:42.867Z,28.83
2022-10-30T05:33:51.376Z,22.77
2022-10-30T05:38:59.239Z,27.83
2022-10-30T05:44:07.045Z,23.60
2022-10-30T05:49:15.861Z,26.10
2022-10-30T05:54:23.774Z,31.87
2022-10-30T05:59:32.664Z,26.30
2022-10-30T06:04:40.787Z,29.00
2022-10-30T06:09:48.605Z,26.37
2022-10-30T06:14:56.427Z,29.93
2022-10-30T06:20:04.327Z,28.87
2022-10-30T06:25:12.169Z,28.63
2022-10-30T06:30:20.136Z,31.80
2022-10-30T06:35:28.423Z,38.93
2022-10-30T06:40:36.213Z,36.77
2022-10-30T06:45:44.063Z,43.77
2022-10-30T06:50:55.906Z,45.80
2022-10-30T06:56:04.395Z,49.53
2022-10-30T07:01:13.438Z,42.13
2022-10-30T07:06:21.352Z,39.63
2022-10-30T07:11:29.301Z,35.83
2022-10-30T07:16:37.673Z,40.47
2022-10-30T07:21:45.525Z,42.63
2022-10-30T07:26:53.314Z,41.23
2022-10-30T07:32:03.498Z,30.97
2022-10-30T07:37:11.686Z,30.93
2022-10-30T07:42:19.660Z,37.87
2022-10-30T07:47:28.037Z,37.87
2022-10-30T07:52:35.901Z,28.40
2022-10-30T07:57:44.126Z,24.73
2022-10-30T08:02:52.803Z,23.77
2022-10-30T08:08:01.291Z,21.67
2022-10-30T08:13:09.315Z,23.73
2022-10-30T08:18:18.175Z,23.87
2022-10-30T08:23:26.015Z,22.30
2022-10-30T08:28:34.068Z,25.93
2022-10-30T08:33:41.935Z,22.60
2022-10-30T08:38:49.874Z,24.13
2022-10-30T08:43:58.903Z,24.17
2022-10-30T08:49:06.820Z,25.77
2022-10-30T08:54:15.145Z,23.77
2022-10-30T08:59:24.026Z,24.17
2022-10-30T09:04:31.974Z,18.33
2022-10-30T09:09:39.873Z,18.30
2022-10-30T09:14:47.707Z,20.20
2022-10-30T09:19:56.144Z,19.47
2022-10-30T09:25:04.031Z,16.13
2022-10-30T09:30:12.545Z,24.00
2022-10-30T09:35:20.345Z,24.40
2022-10-30T09:40:31.373Z,19.47
2022-10-30T09:50:59.215Z,16.60
2022-10-30T09:56:10.237Z,13.47
2022-10-30T10:01:21.375Z,16.70
2022-10-30T10:06:31.335Z,10.20
2022-10-30T10:11:41.507Z,11.60
2022-10-30T10:16:52.468Z,15.13
2022-10-30T10:22:02.276Z,14.83
2022-10-30T10:27:14.798Z,11.13
2022-10-30T10:32:25.909Z,14.23
2022-10-30T10:42:51.210Z,13.23
2022-10-30T10:48:03.627Z,12.43
2022-10-30T10:53:15.723Z,15.27
2022-10-30T10:58:27.231Z,11.13
2022-10-30T11:03:38.229Z,15.23
2022-10-30T11:08:46.083Z,14.03
2022-10-30T11:13:53.977Z,12.73
2022-10-30T11:19:03.557Z,13.63
2022-10-30T11:24:15.092Z,15.63
2022-10-30T11:29:25.233Z,11.97
2022-10-30T11:34:35.489Z,11.40
2022-10-30T11:39:43.305Z,15.13
2022-10-30T11:44:51.399Z,12.10
2022-10-30T11:50:02.585Z,13.37
2022-10-30T11:55:14.595Z,15.57
2022-10-30T12:00:24.809Z,13.33
2022-10-30T12:05:37.276Z,13.50
2022-10-30T12:10:48.102Z,9.13
2022-10-30T12:16:00.317Z,16.17
2022-10-30T12:21:09.675Z,9.43
2022-10-30T12:26:17.485Z,8.70
2022-10-30T12:31:28.213Z,11.83
2022-10-30T12:36:38.204Z,7.73
2022-10-30T12:41:49.183Z,10.20
2022-10-30T12:47:00.161Z,11.93
2022-10-30T12:52:11.496Z,10.77
2022-10-30T12:57:22.476Z,10.43
2022-10-30T13:02:34.698Z,14.00
2022-10-30T13:07:45.794Z,15.73
2022-10-30T13:12:56.626Z,12.57
2022-10-30T13:18:07.647Z,7.90
2022-10-30T13:23:19.740Z,11.43
2022-10-30T13:28:29.857Z,7.90
2022-10-30T13:33:42.954Z,21.73
2022-10-30T13:38:54.321Z,9.83
2022-10-30T13:44:05.527Z,10.33
2022-10-30T13:49:17.658Z,9.00
2022-10-30T13:54:28.618Z,14.00
2022-10-30T14:04:53.802Z,10.40
2022-10-30T14:10:05.120Z,9.17
2022-10-30T14:15:17.062Z,10.20
2022-10-30T14:20:31.789Z,11.60
2022-10-30T14:25:39.665Z,8.47
2022-10-30T14:30:48.505Z,29.37
2022-10-30T14:36:17.835Z,35.87
2022-10-30T14:41:30.141Z,30.87
2022-10-30T14:46:41.104Z,12.23
2022-10-30T14:51:53.632Z,9.43
2022-10-30T14:57:01.489Z,10.13
2022-10-30T15:02:14.057Z,13.90
2022-10-30T15:07:25.091Z,14.97
2022-10-30T15:12:36.814Z,11.87
2022-10-30T15:17:46.939Z,14.80
2022-10-30T15:22:57.484Z,9.77
2022-10-30T15:28:06.218Z,12.37
2022-10-30T15:33:17.328Z,11.93
2022-10-30T15:38:25.318Z,20.03
2022-10-30T15:43:35.868Z,19.03
2022-10-30T15:48:45.289Z,14.57
2022-10-30T15:53:55.374Z,10.93
2022-10-30T15:59:06.499Z,13.73
2022-10-30T16:04:16.600Z,12.43
2022-10-30T16:09:24.636Z,15.87
2022-10-30T16:14:33.399Z,12.13
2022-10-30T16:19:44.661Z,19.33
2022-10-30T16:24:53.233Z,20.10
2022-10-30T16:30:01.461Z,16.53
2022-10-30T16:35:11.092Z,15.47
2022-10-30T16:40:21.487Z,29.27
2022-10-30T16:50:47.444Z,23.33
2022-10-30T16:55:56.524Z,33.00
2022-10-30T17:01:07.215Z,26.97
2022-10-30T17:06:20.248Z,26.60
2022-10-30T17:11:42.939Z,22.10
2022-10-30T17:17:01.287Z,24.43
2022-10-30T17:22:16.764Z,25.83
2022-10-30T17:27:29.803Z,25.67
2022-10-30T17:32:41.413Z,33.77
2022-10-30T17:37:49.844Z,33.53
2022-10-30T17:42:59.581Z,34.60
2022-10-30T17:48:10.778Z,28.93
2022-10-30T17:53:22.174Z,31.70
2022-10-30T17:58:31.195Z,44.80
2022-10-30T18:03:41.867Z,34.40
2022-10-30T18:08:52.665Z,24.83
2022-10-30T18:14:02.131Z,27.63
2022-10-30T18:19:13.671Z,27.67
2022-10-30T18:24:26.213Z,28.63
2022-10-30T18:29:34.941Z,25.37
2022-10-30T18:34:43.404Z,23.23
2022-10-30T18:39:52.591Z,27.37
2022-10-30T18:45:03.749Z,28.57
2022-10-30T18:50:12.631Z,32.23
2022-10-30T18:55:23.478Z,28.67
2022-10-30T19:00:45.121Z,31.63
2022-10-30T19:05:46.248Z,29.07
2022-10-30T19:10:56.633Z,26.33
2022-10-30T19:16:04.691Z,30.50
2022-10-30T19:21:16.226Z,33.10
2022-10-30T19:26:24.150Z,32.47
2022-10-30T19:31:32.240Z,35.07
2022-10-30T19:36:41.600Z,31.10
2022-10-30T19:41:50.939Z,26.90
2022-10-30T19:46:59.573Z,49.43
2022-10-30T19:52:08.244Z,29.30
2022-10-30T20:02:26.196Z,30.10
2022-10-30T20:07:34.492Z,51.80
2022-10-30T20:12:43.468Z,57.00
2022-10-30T20:17:51.661Z,62.67
2022-10-30T20:23:01.555Z,73.07
2022-10-30T20:28:12.714Z,57.03
2022-10-30T20:33:20.787Z,45.20
2022-10-30T20:38:31.233Z,45.80
2022-10-30T20:43:40.856Z,45.97
2022-10-30T20:48:49.084Z,48.23
2022-10-30T20:53:57.287Z,48.60
2022-10-30T20:59:06.572Z,50.90
2022-10-30T21:04:18.557Z,44.00
2022-10-30T21:09:27.878Z,38.67
2022-10-30T21:14:37.399Z,37.07
2022-10-30T21:19:45.386Z,35.03
2022-10-30T21:24:54.673Z,31.80
2022-10-30T21:30:02.822Z,30.80
2022-10-30T21:35:11.014Z,30.50
2022-10-30T21:40:19.918Z,30.30
2022-10-30T21:45:29.065Z,24.47
2022-10-30T21:50:36.949Z,28.50
2022-10-30T21:55:44.969Z,28.47
2022-10-30T22:00:53.208Z,28.00
2022-10-30T22:06:10.806Z,25.33
2022-10-30T22:11:19.354Z,27.80
2022-10-30T22:16:28.760Z,24.20
2022-10-30T22:21:36.837Z,26.33
2022-10-30T22:26:44.921Z,18.90
2022-10-30T22:31:53.530Z,28.33
2022-10-30T22:37:01.622Z,28.93
2022-10-30T22:42:10.074Z,29.30
2022-10-30T22:47:17.981Z,29.23
2022-10-30T22:52:26.281Z,27.87
2022-10-30T22:57:35.172Z,32.47
2022-10-30T23:02:42.999Z,37.60
2022-10-30T23:07:52.753Z,39.13
2022-10-30T23:13:01.324Z,40.90
2022-10-30T23:18:09.372Z,44.37
2022-10-30T23:23:17.271Z,35.87
2022-10-30T23:28:25.068Z,30.00
2022-10-30T23:33:33.345Z,32.43
2022-10-30T23:38:41.198Z,27.33
2022-10-30T23:43:49.162Z,28.30
2022-10-30T23:48:57.060Z,31.83
2022-10-30T23:54:05.004Z,34.90
2022-10-30T23:59:12.867Z,26.93
